TimeMST,TemperatureF,Dew PointF,Humidity,Sea Level PressureIn,VisibilityMPH,Wind Direction,Wind SpeedMPH,Gust SpeedMPH,PrecipitationIn,Events,Conditions,WindDirDegrees,DateUTC
12:15 AM,28.4,26.6,93,29.92,4.0,East,4.6,-,N/A,,Overcast,80,2013-03-09 07:15:00
12:35 AM,28.4,26.6,93,29.91,3.0,Calm,Calm,-,N/A,,Overcast,0,2013-03-09 07:35:00
12:55 AM,28.4,26.6,93,29.91,4.0,Calm,Calm,-,N/A,,Overcast,0,2013-03-09 07:55:00
1:15 AM,28.4,24.8,86,29.91,3.0,Calm,Calm,-,N/A,,Overcast,0,2013-03-09 08:15:00
1:35 AM,28.4,26.6,93,29.91,3.0,ENE,3.5,-,N/A,,Overcast,60,2013-03-09 08:35:00
1:55 AM,28.4,24.8,86,29.90,3.0,Calm,Calm,-,N/A,,Overcast,0,2013-03-09 08:55:00
2:35 AM,28.4,26.6,93,29.90,3.0,Calm,Calm,-,N/A,,Overcast,0,2013-03-09 09:35:00
2:55 AM,28.4,26.6,93,29.90,3.0,NNW,3.5,-,N/A,,Overcast,330,2013-03-09 09:55:00
3:15 AM,28.4,26.6,93,29.89,3.0,WNW,3.5,-,N/A,,Overcast,300,2013-03-09 10:15:00
3:35 AM,28.4,26.6,93,29.89,4.0,WNW,4.6,-,N/A,,Overcast,290,2013-03-09 10:35:00
3:55 AM,28.4,26.6,93,29.89,4.0,West,5.8,-,N/A,,Overcast,260,2013-03-09 10:55:00
4:15 AM,28.4,26.6,93,29.89,4.0,West,5.8,-,N/A,,Overcast,270,2013-03-09 11:15:00
4:35 AM,28.4,26.6,93,29.89,4.0,West,4.6,-,N/A,,Overcast,280,2013-03-09 11:35:00
5:15 AM,30.2,28.4,93,29.90,7.0,NW,9.2,-,N/A,,Overcast,310,2013-03-09 12:15:00
5:35 AM,32.0,28.4,87,29.91,8.0,NW,11.5,-,N/A,,Overcast,310,2013-03-09 12:35:00
5:55 AM,30.2,28.4,93,29.92,7.0,NW,9.2,-,N/A,,Overcast,320,2013-03-09 12:55:00
6:35 AM,30.2,26.6,86,29.92,7.0,NW,10.4,-,N/A,,Overcast,310,2013-03-09 13:35:00
6:55 AM,30.2,26.6,86,29.93,10.0,NW,13.8,17.3,N/A,,Overcast,320,2013-03-09 13:55:00
7:15 AM,30.2,24.8,80,29.93,10.0,NW,17.3,21.9,N/A,,Overcast,310,2013-03-09 14:15:00
7:35 AM,28.4,24.8,86,29.94,10.0,NW,19.6,25.3,N/A,,Overcast,310,2013-03-09 14:35:00
8:15 AM,26.6,21.2,80,29.95,9.0,NW,20.7,25.3,N/A,,Overcast,310,2013-03-09 15:15:00
8:35 AM,26.6,23.0,86,29.96,9.0,NW,15.0,26.5,N/A,,Overcast,320,2013-03-09 15:35:00
8:55 AM,26.6,21.2,80,29.95,8.0,NW,24.2,28.8,N/A,,Overcast,320,2013-03-09 15:55:00
9:15 AM,28.4,23.0,80,29.97,8.0,NW,18.4,25.3,N/A,,Overcast,320,2013-03-09 16:15:00
9:35 AM,26.6,23.0,86,29.98,7.0,NW,19.6,-,N/A,,Overcast,310,2013-03-09 16:35:00
9:55 AM,28.4,21.2,74,29.99,9.0,NNW,16.1,20.7,N/A,,Overcast,330,2013-03-09 16:55:00
10:15 AM,30.2,23.0,75,30.00,10.0,NNW,20.7,25.3,N/A,,Mostly Cloudy,330,2013-03-09 17:15:00
10:35 AM,28.4,23.0,80,30.01,10.0,North,16.1,-,N/A,,Mostly Cloudy,350,2013-03-09 17:35:00
10:55 AM,30.2,23.0,75,30.00,10.0,NNW,19.6,-,N/A,,Partly Cloudy,330,2013-03-09 17:55:00
11:35 AM,30.2,23.0,75,30.02,10.0,NNW,17.3,24.2,N/A,,Clear,330,2013-03-09 18:35:00
11:55 AM,30.2,23.0,75,30.02,10.0,NNW,16.1,-,N/A,,Clear,340,2013-03-09 18:55:00
12:15 PM,30.2,23.0,75,30.03,10.0,NNW,11.5,17.3,N/A,,Clear,330,2013-03-09 19:15:00
12:55 PM,33.8,24.8,70,30.03,10.0,NW,13.8,17.3,N/A,,Scattered Clouds,320,2013-03-09 19:55:00
1:16 PM,33.8,23.0,65,30.03,10.0,NW,19.6,24.2,N/A,,Partly Cloudy,320,2013-03-09 20:16:00
1:35 PM,33.8,23.0,65,30.04,10.0,NW,18.4,25.3,N/A,,Clear,320,2013-03-09 20:35:00
1:55 PM,33.8,24.8,70,30.04,10.0,NNW,19.6,25.3,N/A,,Partly Cloudy,330,2013-03-09 20:55:00
2:15 PM,33.8,23.0,65,30.04,10.0,NW,21.9,27.6,N/A,,Clear,320,2013-03-09 21:15:00
2:35 PM,33.8,23.0,65,30.05,10.0,NNW,19.6,24.2,N/A,,Partly Cloudy,330,2013-03-09 21:35:00
2:55 PM,33.8,24.8,70,30.05,10.0,NW,18.4,-,N/A,,Partly Cloudy,320,2013-03-09 21:55:00
3:15 PM,32.0,24.8,75,30.07,10.0,NW,12.7,-,N/A,,Clear,320,2013-03-09 22:15:00
3:35 PM,33.8,24.8,70,30.07,10.0,NNW,16.1,20.7,N/A,,Scattered Clouds,330,2013-03-09 22:35:00
4:15 PM,32.0,21.2,64,30.08,10.0,NNW,16.1,-,N/A,,Partly Cloudy,330,2013-03-09 23:15:00
4:35 PM,32.0,23.0,69,30.09,10.0,NNW,16.1,-,N/A,,Clear,340,2013-03-09 23:35:00
5:35 PM,28.4,19.4,69,30.12,10.0,NNW,12.7,-,N/A,,Clear,340,2013-03-10 00:35:00
5:55 PM,28.4,19.4,69,30.13,10.0,North,9.2,-,N/A,,Clear,350,2013-03-10 00:55:00
6:15 PM,26.6,19.4,74,30.14,10.0,North,6.9,-,N/A,,Partly Cloudy,360,2013-03-10 01:15:00
6:35 PM,26.6,19.4,74,30.15,10.0,North,10.4,-,N/A,,Scattered Clouds,350,2013-03-10 01:35:00
6:55 PM,26.6,19.4,74,30.16,10.0,North,11.5,-,N/A,,Mostly Cloudy,350,2013-03-10 01:55:00
7:15 PM,24.8,17.6,74,30.17,10.0,NNW,11.5,-,N/A,,Mostly Cloudy,340,2013-03-10 02:15:00
7:35 PM,24.8,17.6,74,30.18,10.0,NNW,10.4,-,N/A,,Scattered Clouds,340,2013-03-10 02:35:00
7:55 PM,23.0,17.6,80,30.19,10.0,NNW,6.9,-,N/A,,Clear,340,2013-03-10 02:55:00
8:15 PM,21.2,17.6,86,30.19,10.0,NNW,6.9,-,N/A,,Clear,340,2013-03-10 03:15:00
8:35 PM,21.2,15.8,80,30.20,10.0,NNW,6.9,-,N/A,,Clear,340,2013-03-10 03:35:00
8:55 PM,21.2,17.6,86,30.21,9.0,NNW,8.1,-,N/A,,Clear,330,2013-03-10 03:55:00
9:15 PM,21.2,15.8,80,30.21,10.0,NNW,9.2,-,N/A,,Clear,330,2013-03-10 04:15:00
9:35 PM,21.2,15.8,80,30.22,10.0,NNW,10.4,-,N/A,,Clear,330,2013-03-10 04:35:00
9:55 PM,19.4,15.8,86,30.23,10.0,NNW,9.2,-,N/A,,Clear,330,2013-03-10 04:55:00
10:15 PM,19.4,15.8,86,30.23,8.0,NW,8.1,-,N/A,,Clear,320,2013-03-10 05:15:00
10:35 PM,19.4,15.8,86,30.23,8.0,NNW,8.1,-,N/A,,Clear,330,2013-03-10 05:35:00
10:55 PM,19.4,15.8,86,30.23,8.0,NNW,8.1,-,N/A,,Clear,330,2013-03-10 05:55:00
11:15 PM,19.4,14.0,80,30.23,8.0,NNW,5.8,-,N/A,,Clear,330,2013-03-10 06:15:00
11:35 PM,17.6,12.2,79,30.23,7.0,NW,6.9,-,N/A,,Clear,320,2013-03-10 06:35:00